sensor_id;sensor_type;location;lat;lon;timestamp;temperature;humidity
19363;DHT22;9817;50.80926400;5.16316200;2023-02-28T00:01:16;1.80;99.90
19363;DHT22;9817;50.80926400;5.16316200;2023-02-28T00:03:42;1.80;99.90
19363;DHT22;9817;50.80926400;5.16316200;2023-02-28T00:06:08;1.80;99.90
19363;DHT22;9817;50.80926400;5.16316200;2023-02-28T00:08:38;1.70;99.90
19363;DHT22;9817;50.80926400;5.16316200;2023-02-28T00:11:06;1.70;99.90
19363;DHT22;9817;50.80926400;5.16316200;2023-02-28T00:13:35;1.70;99.90
19363;DHT22;9817;50.80926400;5.16316200;2023-02-28T00:16:12;1.70;99.90
19363;DHT22;9817;50.80926400;5.16316200;2023-02-28T00:18:38;1.80;99.90
19363;DHT22;9817;50.80926400;5.16316200;2023-02-28T00:21:05;1.80;99.90
19363;DHT22;9817;50.80926400;5.16316200;2023-02-28T00:23:31;1.90;99.90
19363;DHT22;9817;50.80926400;5.16316200;2023-02-28T00:25:57;1.80;99.90
19363;DHT22;9817;50.80926400;5.16316200;2023-02-28T00:28:23;1.90;99.90
19363;DHT22;9817;50.80926400;5.16316200;2023-02-28T00:30:49;1.80;99.90
19363;DHT22;9817;50.80926400;5.16316200;2023-02-28T00:33:15;1.90;99.90
19363;DHT22;9817;50.80926400;5.16316200;2023-02-28T00:35:40;1.80;99.90
19363;DHT22;9817;50.80926400;5.16316200;2023-02-28T00:38:06;1.70;99.90
19363;DHT22;9817;50.80926400;5.16316200;2023-02-28T00:40:32;1.70;99.90
19363;DHT22;9817;50.80926400;5.16316200;2023-02-28T00:42:57;1.60;99.90
19363;DHT22;9817;50.80926400;5.16316200;2023-02-28T00:45:23;1.60;99.90
19363;DHT22;9817;50.80926400;5.16316200;2023-02-28T00:47:49;1.60;99.90
19363;DHT22;9817;50.80926400;5.16316200;2023-02-28T00:50:19;1.60;99.90
19363;DHT22;9817;50.80926400;5.16316200;2023-02-28T00:52:46;1.50;99.90
19363;DHT22;9817;50.80926400;5.16316200;2023-02-28T00:55:12;1.60;99.90
19363;DHT22;9817;50.80926400;5.16316200;2023-02-28T00:57:37;1.50;99.90
19363;DHT22;9817;50.80926400;5.16316200;2023-02-28T01:00:04;1.50;99.90
19363;DHT22;9817;50.80926400;5.16316200;2023-02-28T01:02:30;1.60;99.90
19363;DHT22;9817;50.80926400;5.16316200;2023-02-28T01:04:55;1.50;99.90
19363;DHT22;9817;50.80926400;5.16316200;2023-02-28T01:07:22;1.40;99.90
19363;DHT22;9817;50.80926400;5.16316200;2023-02-28T01:09:48;1.30;99.90
19363;DHT22;9817;50.80926400;5.16316200;2023-02-28T01:12:14;1.30;99.90
19363;DHT22;9817;50.80926400;5.16316200;2023-02-28T01:14:40;1.30;99.90
19363;DHT22;9817;50.80926400;5.16316200;2023-02-28T01:17:06;1.40;99.90
19363;DHT22;9817;50.80926400;5.16316200;2023-02-28T01:19:32;1.30;99.90
19363;DHT22;9817;50.80926400;5.16316200;2023-02-28T01:22:04;1.30;99.90
19363;DHT22;9817;50.80926400;5.16316200;2023-02-28T01:24:30;1.30;99.90
19363;DHT22;9817;50.80926400;5.16316200;2023-02-28T01:26:55;1.30;99.90
19363;DHT22;9817;50.80926400;5.16316200;2023-02-28T01:29:21;1.30;99.90
19363;DHT22;9817;50.80926400;5.16316200;2023-02-28T01:31:46;1.30;99.90
19363;DHT22;9817;50.80926400;5.16316200;2023-02-28T01:34:12;1.30;99.90
19363;DHT22;9817;50.80926400;5.16316200;2023-02-28T01:36:38;1.30;99.90
19363;DHT22;9817;50.80926400;5.16316200;2023-02-28T01:39:04;1.40;99.90
19363;DHT22;9817;50.80926400;5.16316200;2023-02-28T01:41:32;1.40;99.90
19363;DHT22;9817;50.80926400;5.16316200;2023-02-28T01:44:05;1.50;99.90
19363;DHT22;9817;50.80926400;5.16316200;2023-02-28T01:46:32;1.40;99.90
19363;DHT22;9817;50.80926400;5.16316200;2023-02-28T01:49:03;1.40;99.90
19363;DHT22;9817;50.80926400;5.16316200;2023-02-28T01:51:51;1.30;99.90
19363;DHT22;9817;50.80926400;5.16316200;2023-02-28T01:54:27;1.20;99.90
19363;DHT22;9817;50.80926400;5.16316200;2023-02-28T01:57:04;1.30;99.90
19363;DHT22;9817;50.80926400;5.16316200;2023-02-28T01:59:34;1.40;99.90
19363;DHT22;9817;50.80926400;5.16316200;2023-02-28T02:02:02;1.20;99.90
19363;DHT22;9817;50.80926400;5.16316200;2023-02-28T02:04:34;1.20;99.90
19363;DHT22;9817;50.80926400;5.16316200;2023-02-28T02:07:03;1.00;99.90
19363;DHT22;9817;50.80926400;5.16316200;2023-02-28T02:09:29;0.90;99.90
19363;DHT22;9817;50.80926400;5.16316200;2023-02-28T02:11:55;1.00;99.90
19363;DHT22;9817;50.80926400;5.16316200;2023-02-28T02:17:45;0.90;99.90
19363;DHT22;9817;50.80926400;5.16316200;2023-02-28T02:34:52;1.10;99.90
19363;DHT22;9817;50.80926400;5.16316200;2023-02-28T02:37:31;1.00;99.90
19363;DHT22;9817;50.80926400;5.16316200;2023-02-28T02:40:20;0.80;99.90
19363;DHT22;9817;50.80926400;5.16316200;2023-02-28T02:43:00;0.80;99.90
19363;DHT22;9817;50.80926400;5.16316200;2023-02-28T02:45:37;0.80;99.90
19363;DHT22;9817;50.80926400;5.16316200;2023-02-28T02:48:08;0.80;99.90
19363;DHT22;9817;50.80926400;5.16316200;2023-02-28T02:50:46;0.90;99.90
19363;DHT22;9817;50.80926400;5.16316200;2023-02-28T02:53:15;0.90;99.90
19363;DHT22;9817;50.80926400;5.16316200;2023-02-28T02:55:46;1.00;99.90
19363;DHT22;9817;50.80926400;5.16316200;2023-02-28T02:58:16;1.00;99.90
19363;DHT22;9817;50.80926400;5.16316200;2023-02-28T03:00:52;1.00;99.90
19363;DHT22;9817;50.80926400;5.16316200;2023-02-28T03:03:19;0.90;99.90
19363;DHT22;9817;50.80926400;5.16316200;2023-02-28T03:05:54;0.90;99.90
19363;DHT22;9817;50.80926400;5.16316200;2023-02-28T03:08:20;0.80;99.90
19363;DHT22;9817;50.80926400;5.16316200;2023-02-28T03:10:49;0.70;99.90
19363;DHT22;9817;50.80926400;5.16316200;2023-02-28T03:19:14;0.80;99.90
19363;DHT22;9817;50.80926400;5.16316200;2023-02-28T03:27:24;0.80;99.90
19363;DHT22;9817;50.80926400;5.16316200;2023-02-28T03:32:30;0.80;99.90
19363;DHT22;9817;50.80926400;5.16316200;2023-02-28T03:35:09;0.80;99.90
19363;DHT22;9817;50.80926400;5.16316200;2023-02-28T03:37:38;0.90;99.90
19363;DHT22;9817;50.80926400;5.16316200;2023-02-28T03:40:11;0.80;99.90
19363;DHT22;9817;50.80926400;5.16316200;2023-02-28T03:42:41;0.90;99.90
19363;DHT22;9817;50.80926400;5.16316200;2023-02-28T03:45:15;0.90;99.90
19363;DHT22;9817;50.80926400;5.16316200;2023-02-28T03:48:10;0.90;99.90
19363;DHT22;9817;50.80926400;5.16316200;2023-02-28T03:50:43;0.90;99.90
19363;DHT22;9817;50.80926400;5.16316200;2023-02-28T03:53:20;1.00;99.90
19363;DHT22;9817;50.80926400;5.16316200;2023-02-28T03:55:54;0.80;99.90
19363;DHT22;9817;50.80926400;5.16316200;2023-02-28T03:58:32;0.90;99.90
19363;DHT22;9817;50.80926400;5.16316200;2023-02-28T04:01:09;1.00;99.90
19363;DHT22;9817;50.80926400;5.16316200;2023-02-28T04:03:36;0.90;99.90
19363;DHT22;9817;50.80926400;5.16316200;2023-02-28T04:06:02;1.00;99.90
19363;DHT22;9817;50.80926400;5.16316200;2023-02-28T04:08:28;1.00;99.90
19363;DHT22;9817;50.80926400;5.16316200;2023-02-28T04:13:44;1.30;99.90
19363;DHT22;9817;50.80926400;5.16316200;2023-02-28T04:16:10;1.40;99.90
19363;DHT22;9817;50.80926400;5.16316200;2023-02-28T04:18:38;1.40;99.90
19363;DHT22;9817;50.80926400;5.16316200;2023-02-28T04:21:05;1.30;99.90
19363;DHT22;9817;50.80926400;5.16316200;2023-02-28T04:23:31;1.30;99.90
19363;DHT22;9817;50.80926400;5.16316200;2023-02-28T04:25:57;1.30;99.90
19363;DHT22;9817;50.80926400;5.16316200;2023-02-28T04:28:23;1.30;99.90
19363;DHT22;9817;50.80926400;5.16316200;2023-02-28T04:30:57;1.20;99.90
19363;DHT22;9817;50.80926400;5.16316200;2023-02-28T04:33:22;1.30;99.90
19363;DHT22;9817;50.80926400;5.16316200;2023-02-28T04:35:48;1.20;99.90
19363;DHT22;9817;50.80926400;5.16316200;2023-02-28T04:38:13;1.30;99.90
19363;DHT22;9817;50.80926400;5.16316200;2023-02-28T04:40:39;1.20;99.90
19363;DHT22;9817;50.80926400;5.16316200;2023-02-28T04:43:05;1.00;99.90
19363;DHT22;9817;50.80926400;5.16316200;2023-02-28T04:45:30;0.90;99.90
19363;DHT22;9817;50.80926400;5.16316200;2023-02-28T04:47:57;0.80;99.90
19363;DHT22;9817;50.80926400;5.16316200;2023-02-28T04:50:23;0.70;99.90
19363;DHT22;9817;50.80926400;5.16316200;2023-02-28T04:52:49;0.60;99.90
19363;DHT22;9817;50.80926400;5.16316200;2023-02-28T04:55:14;0.60;99.90
19363;DHT22;9817;50.80926400;5.16316200;2023-02-28T04:57:40;0.60;99.90
19363;DHT22;9817;50.80926400;5.16316200;2023-02-28T05:00:09;0.60;99.90
19363;DHT22;9817;50.80926400;5.16316200;2023-02-28T05:02:37;0.40;99.90
19363;DHT22;9817;50.80926400;5.16316200;2023-02-28T05:05:04;0.50;99.90
19363;DHT22;9817;50.80926400;5.16316200;2023-02-28T05:07:29;0.50;99.90
19363;DHT22;9817;50.80926400;5.16316200;2023-02-28T05:09:55;0.60;99.90
19363;DHT22;9817;50.80926400;5.16316200;2023-02-28T05:12:20;0.50;99.90
19363;DHT22;9817;50.80926400;5.16316200;2023-02-28T05:14:46;0.60;99.90
19363;DHT22;9817;50.80926400;5.16316200;2023-02-28T05:17:11;0.50;99.90
19363;DHT22;9817;50.80926400;5.16316200;2023-02-28T05:19:37;0.50;99.90
19363;DHT22;9817;50.80926400;5.16316200;2023-02-28T05:22:03;0.40;99.90
19363;DHT22;9817;50.80926400;5.16316200;2023-02-28T05:24:28;0.40;99.90
19363;DHT22;9817;50.80926400;5.16316200;2023-02-28T05:26:54;0.40;99.90
19363;DHT22;9817;50.80926400;5.16316200;2023-02-28T05:29:20;0.50;99.90
19363;DHT22;9817;50.80926400;5.16316200;2023-02-28T05:31:46;0.50;99.90
19363;DHT22;9817;50.80926400;5.16316200;2023-02-28T05:34:12;0.40;99.90
19363;DHT22;9817;50.80926400;5.16316200;2023-02-28T05:36:39;0.40;99.90
19363;DHT22;9817;50.80926400;5.16316200;2023-02-28T05:39:08;0.40;99.90
19363;DHT22;9817;50.80926400;5.16316200;2023-02-28T05:41:39;0.40;99.90
19363;DHT22;9817;50.80926400;5.16316200;2023-02-28T05:44:04;0.60;99.90
19363;DHT22;9817;50.80926400;5.16316200;2023-02-28T05:46:30;0.60;99.90
19363;DHT22;9817;50.80926400;5.16316200;2023-02-28T05:48:55;0.40;99.90
19363;DHT22;9817;50.80926400;5.16316200;2023-02-28T05:51:23;0.40;99.90
19363;DHT22;9817;50.80926400;5.16316200;2023-02-28T05:53:48;0.30;99.90
19363;DHT22;9817;50.80926400;5.16316200;2023-02-28T05:56:14;0.20;99.90
19363;DHT22;9817;50.80926400;5.16316200;2023-02-28T05:58:40;0.10;99.90
19363;DHT22;9817;50.80926400;5.16316200;2023-02-28T06:04:00;0.00;99.90
19363;DHT22;9817;50.80926400;5.16316200;2023-02-28T06:06:26;0.00;99.90
19363;DHT22;9817;50.80926400;5.16316200;2023-02-28T06:08:52;-0.10;99.90
19363;DHT22;9817;50.80926400;5.16316200;2023-02-28T06:11:18;-0.30;99.90
19363;DHT22;9817;50.80926400;5.16316200;2023-02-28T06:13:45;-0.40;99.90
19363;DHT22;9817;50.80926400;5.16316200;2023-02-28T06:16:11;-0.30;99.90
19363;DHT22;9817;50.80926400;5.16316200;2023-02-28T06:18:38;-0.50;99.90
19363;DHT22;9817;50.80926400;5.16316200;2023-02-28T06:21:05;-0.40;99.90
19363;DHT22;9817;50.80926400;5.16316200;2023-02-28T06:23:31;-0.50;99.90
19363;DHT22;9817;50.80926400;5.16316200;2023-02-28T06:25:56;-0.50;99.90
19363;DHT22;9817;50.80926400;5.16316200;2023-02-28T06:28:25;-0.50;99.90
19363;DHT22;9817;50.80926400;5.16316200;2023-02-28T06:30:51;-0.30;99.90
19363;DHT22;9817;50.80926400;5.16316200;2023-02-28T06:33:17;-0.30;99.90
19363;DHT22;9817;50.80926400;5.16316200;2023-02-28T06:35:52;-0.30;99.90
19363;DHT22;9817;50.80926400;5.16316200;2023-02-28T06:38:18;-0.40;99.90
19363;DHT22;9817;50.80926400;5.16316200;2023-02-28T06:40:44;-0.50;99.90
19363;DHT22;9817;50.80926400;5.16316200;2023-02-28T06:43:10;-0.50;99.90
19363;DHT22;9817;50.80926400;5.16316200;2023-02-28T06:45:43;-0.60;99.90
19363;DHT22;9817;50.80926400;5.16316200;2023-02-28T06:48:09;-0.50;99.90
19363;DHT22;9817;50.80926400;5.16316200;2023-02-28T06:50:36;-0.40;99.90
19363;DHT22;9817;50.80926400;5.16316200;2023-02-28T06:53:02;-0.30;99.90
19363;DHT22;9817;50.80926400;5.16316200;2023-02-28T06:55:27;-0.20;99.90
19363;DHT22;9817;50.80926400;5.16316200;2023-02-28T06:57:53;-0.10;99.90
19363;DHT22;9817;50.80926400;5.16316200;2023-02-28T07:00:20;0.20;99.90
19363;DHT22;9817;50.80926400;5.16316200;2023-02-28T07:02:46;0.40;99.90
19363;DHT22;9817;50.80926400;5.16316200;2023-02-28T07:05:12;0.30;99.90
19363;DHT22;9817;50.80926400;5.16316200;2023-02-28T07:07:38;0.30;99.90
19363;DHT22;9817;50.80926400;5.16316200;2023-02-28T07:10:12;0.30;99.90
19363;DHT22;9817;50.80926400;5.16316200;2023-02-28T07:12:39;0.30;99.90
19363;DHT22;9817;50.80926400;5.16316200;2023-02-28T07:15:05;0.50;99.90
19363;DHT22;9817;50.80926400;5.16316200;2023-02-28T07:17:31;0.50;99.90
19363;DHT22;9817;50.80926400;5.16316200;2023-02-28T07:19:57;0.60;99.90
19363;DHT22;9817;50.80926400;5.16316200;2023-02-28T07:22:23;0.90;99.90
19363;DHT22;9817;50.80926400;5.16316200;2023-02-28T07:24:48;1.20;99.90
19363;DHT22;9817;50.80926400;5.16316200;2023-02-28T07:27:14;1.40;99.90
19363;DHT22;9817;50.80926400;5.16316200;2023-02-28T07:29:49;1.90;99.90
19363;DHT22;9817;50.80926400;5.16316200;2023-02-28T07:32:15;2.30;99.90
19363;DHT22;9817;50.80926400;5.16316200;2023-02-28T07:34:41;3.30;99.90
19363;DHT22;9817;50.80926400;5.16316200;2023-02-28T07:37:06;4.00;99.90
19363;DHT22;9817;50.80926400;5.16316200;2023-02-28T07:39:32;4.50;99.90
19363;DHT22;9817;50.80926400;5.16316200;2023-02-28T07:41:58;5.00;99.90
19363;DHT22;9817;50.80926400;5.16316200;2023-02-28T07:44:25;5.40;99.90
19363;DHT22;9817;50.80926400;5.16316200;2023-02-28T07:46:51;6.10;99.90
19363;DHT22;9817;50.80926400;5.16316200;2023-02-28T07:49:18;7.10;99.90
19363;DHT22;9817;50.80926400;5.16316200;2023-02-28T07:51:44;8.00;99.90
19363;DHT22;9817;50.80926400;5.16316200;2023-02-28T07:54:10;8.80;99.90
19363;DHT22;9817;50.80926400;5.16316200;2023-02-28T07:56:37;9.90;99.90
19363;DHT22;9817;50.80926400;5.16316200;2023-02-28T07:59:03;10.40;99.90
19363;DHT22;9817;50.80926400;5.16316200;2023-02-28T08:01:28;10.70;99.90
19363;DHT22;9817;50.80926400;5.16316200;2023-02-28T08:03:54;10.80;99.90
19363;DHT22;9817;50.80926400;5.16316200;2023-02-28T08:06:24;12.00;99.90
19363;DHT22;9817;50.80926400;5.16316200;2023-02-28T08:08:57;13.00;99.90
19363;DHT22;9817;50.80926400;5.16316200;2023-02-28T08:11:24;12.90;98.90
19363;DHT22;9817;50.80926400;5.16316200;2023-02-28T08:13:50;12.10;98.30
19363;DHT22;9817;50.80926400;5.16316200;2023-02-28T08:16:16;10.40;99.90
19363;DHT22;9817;50.80926400;5.16316200;2023-02-28T08:18:48;10.50;99.90
19363;DHT22;9817;50.80926400;5.16316200;2023-02-28T08:21:14;11.20;99.90
19363;DHT22;9817;50.80926400;5.16316200;2023-02-28T08:23:41;11.20;99.30
19363;DHT22;9817;50.80926400;5.16316200;2023-02-28T08:26:06;10.90;99.90
19363;DHT22;9817;50.80926400;5.16316200;2023-02-28T08:28:32;10.70;99.90
19363;DHT22;9817;50.80926400;5.16316200;2023-02-28T08:30:58;9.80;99.90
19363;DHT22;9817;50.80926400;5.16316200;2023-02-28T08:33:25;9.20;99.90
19363;DHT22;9817;50.80926400;5.16316200;2023-02-28T08:35:55;9.70;99.90
19363;DHT22;9817;50.80926400;5.16316200;2023-02-28T08:38:22;9.60;99.90
19363;DHT22;9817;50.80926400;5.16316200;2023-02-28T08:40:48;8.90;99.90
19363;DHT22;9817;50.80926400;5.16316200;2023-02-28T08:43:14;8.60;99.90
19363;DHT22;9817;50.80926400;5.16316200;2023-02-28T08:45:39;8.40;99.90
19363;DHT22;9817;50.80926400;5.16316200;2023-02-28T08:48:05;8.00;99.90
19363;DHT22;9817;50.80926400;5.16316200;2023-02-28T08:50:31;8.50;99.90
19363;DHT22;9817;50.80926400;5.16316200;2023-02-28T08:52:57;8.80;99.90
19363;DHT22;9817;50.80926400;5.16316200;2023-02-28T08:55:22;8.90;99.90
19363;DHT22;9817;50.80926400;5.16316200;2023-02-28T08:57:48;9.20;99.90
19363;DHT22;9817;50.80926400;5.16316200;2023-02-28T09:00:14;9.10;99.90
19363;DHT22;9817;50.80926400;5.16316200;2023-02-28T09:02:40;8.90;99.90
19363;DHT22;9817;50.80926400;5.16316200;2023-02-28T09:05:08;8.70;99.90
19363;DHT22;9817;50.80926400;5.16316200;2023-02-28T09:07:33;8.40;99.90
19363;DHT22;9817;50.80926400;5.16316200;2023-02-28T09:09:59;8.30;99.90
19363;DHT22;9817;50.80926400;5.16316200;2023-02-28T09:12:26;8.60;99.90
19363;DHT22;9817;50.80926400;5.16316200;2023-02-28T09:14:52;9.20;99.90
19363;DHT22;9817;50.80926400;5.16316200;2023-02-28T09:17:18;8.90;99.90
19363;DHT22;9817;50.80926400;5.16316200;2023-02-28T09:19:44;9.20;99.90
19363;DHT22;9817;50.80926400;5.16316200;2023-02-28T09:22:11;9.60;99.90
19363;DHT22;9817;50.80926400;5.16316200;2023-02-28T09:24:37;9.70;99.90
19363;DHT22;9817;50.80926400;5.16316200;2023-02-28T09:27:04;8.70;99.90
19363;DHT22;9817;50.80926400;5.16316200;2023-02-28T09:29:30;8.80;99.90
19363;DHT22;9817;50.80926400;5.16316200;2023-02-28T09:31:56;8.80;99.90
19363;DHT22;9817;50.80926400;5.16316200;2023-02-28T09:34:24;8.90;99.90
19363;DHT22;9817;50.80926400;5.16316200;2023-02-28T09:36:50;8.70;99.90
19363;DHT22;9817;50.80926400;5.16316200;2023-02-28T09:39:20;8.30;99.90
19363;DHT22;9817;50.80926400;5.16316200;2023-02-28T09:41:52;8.20;99.90
19363;DHT22;9817;50.80926400;5.16316200;2023-02-28T09:44:37;8.60;99.90
19363;DHT22;9817;50.80926400;5.16316200;2023-02-28T09:53:04;9.40;99.90
19363;DHT22;9817;50.80926400;5.16316200;2023-02-28T09:55:48;9.70;98.90
19363;DHT22;9817;50.80926400;5.16316200;2023-02-28T09:59:13;9.80;98.20
19363;DHT22;9817;50.80926400;5.16316200;2023-02-28T10:01:28;9.10;97.40
19363;DHT22;9817;50.80926400;5.16316200;2023-02-28T10:06:46;8.50;97.60
19363;DHT22;9817;50.80926400;5.16316200;2023-02-28T10:09:22;8.40;98.40
19363;DHT22;9817;50.80926400;5.16316200;2023-02-28T10:11:52;8.30;97.70
19363;DHT22;9817;50.80926400;5.16316200;2023-02-28T10:14:22;8.20;97.40
19363;DHT22;9817;50.80926400;5.16316200;2023-02-28T10:19:30;7.90;98.30
19363;DHT22;9817;50.80926400;5.16316200;2023-02-28T10:22:11;7.60;99.00
19363;DHT22;9817;50.80926400;5.16316200;2023-02-28T10:24:48;7.50;97.80
19363;DHT22;9817;50.80926400;5.16316200;2023-02-28T10:27:19;6.90;98.50
19363;DHT22;9817;50.80926400;5.16316200;2023-02-28T10:30:04;6.70;98.50
19363;DHT22;9817;50.80926400;5.16316200;2023-02-28T10:32:35;6.80;99.40
19363;DHT22;9817;50.80926400;5.16316200;2023-02-28T10:37:32;7.20;99.20
19363;DHT22;9817;50.80926400;5.16316200;2023-02-28T10:40:05;7.30;98.50
19363;DHT22;9817;50.80926400;5.16316200;2023-02-28T10:42:31;7.20;99.20
19363;DHT22;9817;50.80926400;5.16316200;2023-02-28T10:47:34;7.20;97.80
19363;DHT22;9817;50.80926400;5.16316200;2023-02-28T10:50:02;7.10;98.60
19363;DHT22;9817;50.80926400;5.16316200;2023-02-28T10:52:37;7.00;98.80
19363;DHT22;9817;50.80926400;5.16316200;2023-02-28T10:55:21;7.00;99.30
19363;DHT22;9817;50.80926400;5.16316200;2023-02-28T10:57:49;7.20;97.60
19363;DHT22;9817;50.80926400;5.16316200;2023-02-28T11:00:25;6.80;97.90
19363;DHT22;9817;50.80926400;5.16316200;2023-02-28T11:02:53;6.70;98.10
19363;DHT22;9817;50.80926400;5.16316200;2023-02-28T11:05:27;6.60;97.80
19363;DHT22;9817;50.80926400;5.16316200;2023-02-28T11:08:06;6.30;98.20
19363;DHT22;9817;50.80926400;5.16316200;2023-02-28T11:10:36;6.70;99.00
19363;DHT22;9817;50.80926400;5.16316200;2023-02-28T11:13:02;6.80;97.50
19363;DHT22;9817;50.80926400;5.16316200;2023-02-28T11:15:38;6.50;96.10
19363;DHT22;9817;50.80926400;5.16316200;2023-02-28T11:20:38;6.70;96.50
19363;DHT22;9817;50.80926400;5.16316200;2023-02-28T11:23:11;6.60;96.20
19363;DHT22;9817;50.80926400;5.16316200;2023-02-28T11:25:39;6.80;96.70
19363;DHT22;9817;50.80926400;5.16316200;2023-02-28T11:28:08;7.10;95.70
19363;DHT22;9817;50.80926400;5.16316200;2023-02-28T11:33:54;6.30;96.40
19363;DHT22;9817;50.80926400;5.16316200;2023-02-28T11:36:22;6.00;95.80
19363;DHT22;9817;50.80926400;5.16316200;2023-02-28T11:38:54;5.70;96.20
19363;DHT22;9817;50.80926400;5.16316200;2023-02-28T11:41:46;5.70;96.30
19363;DHT22;9817;50.80926400;5.16316200;2023-02-28T11:49:44;6.00;96.20
19363;DHT22;9817;50.80926400;5.16316200;2023-02-28T12:03:30;5.80;96.30
19363;DHT22;9817;50.80926400;5.16316200;2023-02-28T12:06:21;5.90;96.20
19363;DHT22;9817;50.80926400;5.16316200;2023-02-28T12:11:55;6.20;95.30
19363;DHT22;9817;50.80926400;5.16316200;2023-02-28T12:22:30;6.80;95.20
19363;DHT22;9817;50.80926400;5.16316200;2023-02-28T12:27:36;7.20;94.50
19363;DHT22;9817;50.80926400;5.16316200;2023-02-28T12:30:13;6.90;93.30
19363;DHT22;9817;50.80926400;5.16316200;2023-02-28T12:32:47;6.50;93.30
19363;DHT22;9817;50.80926400;5.16316200;2023-02-28T12:35:28;6.40;94.10
19363;DHT22;9817;50.80926400;5.16316200;2023-02-28T12:38:12;6.50;95.30
19363;DHT22;9817;50.80926400;5.16316200;2023-02-28T12:40:49;6.80;93.70
19363;DHT22;9817;50.80926400;5.16316200;2023-02-28T12:43:17;6.80;93.90
19363;DHT22;9817;50.80926400;5.16316200;2023-02-28T12:48:38;6.10;93.90
19363;DHT22;9817;50.80926400;5.16316200;2023-02-28T12:51:03;6.20;95.00
19363;DHT22;9817;50.80926400;5.16316200;2023-02-28T12:59:25;6.70;93.50
19363;DHT22;9817;50.80926400;5.16316200;2023-02-28T13:02:02;6.60;93.60
19363;DHT22;9817;50.80926400;5.16316200;2023-02-28T13:09:58;6.70;94.70
19363;DHT22;9817;50.80926400;5.16316200;2023-02-28T13:12:25;6.80;94.70
19363;DHT22;9817;50.80926400;5.16316200;2023-02-28T13:15:21;7.10;94.80
19363;DHT22;9817;50.80926400;5.16316200;2023-02-28T13:17:52;7.10;94.70
19363;DHT22;9817;50.80926400;5.16316200;2023-02-28T13:20:46;6.70;93.60
19363;DHT22;9817;50.80926400;5.16316200;2023-02-28T13:26:09;6.80;95.00
19363;DHT22;9817;50.80926400;5.16316200;2023-02-28T13:28:58;6.80;95.10
19363;DHT22;9817;50.80926400;5.16316200;2023-02-28T13:31:24;7.10;94.70
19363;DHT22;9817;50.80926400;5.16316200;2023-02-28T13:36:31;7.00;93.90
19363;DHT22;9817;50.80926400;5.16316200;2023-02-28T13:39:03;6.90;94.50
19363;DHT22;9817;50.80926400;5.16316200;2023-02-28T13:41:49;6.70;94.60
19363;DHT22;9817;50.80926400;5.16316200;2023-02-28T13:44:21;6.80;94.80
19363;DHT22;9817;50.80926400;5.16316200;2023-02-28T14:06:16;6.70;94.50
19363;DHT22;9817;50.80926400;5.16316200;2023-02-28T14:11:41;6.60;95.10
19363;DHT22;9817;50.80926400;5.16316200;2023-02-28T14:14:09;6.90;95.80
19363;DHT22;9817;50.80926400;5.16316200;2023-02-28T14:16:44;6.80;95.00
19363;DHT22;9817;50.80926400;5.16316200;2023-02-28T14:19:25;6.60;95.60
19363;DHT22;9817;50.80926400;5.16316200;2023-02-28T14:34:31;6.80;94.60
19363;DHT22;9817;50.80926400;5.16316200;2023-02-28T14:37:01;6.70;95.40
19363;DHT22;9817;50.80926400;5.16316200;2023-02-28T14:39:28;6.80;95.30
19363;DHT22;9817;50.80926400;5.16316200;2023-02-28T14:41:56;6.70;94.60
19363;DHT22;9817;50.80926400;5.16316200;2023-02-28T14:44:28;6.80;95.10
19363;DHT22;9817;50.80926400;5.16316200;2023-02-28T14:47:04;6.60;95.40
19363;DHT22;9817;50.80926400;5.16316200;2023-02-28T14:49:44;6.70;95.20
19363;DHT22;9817;50.80926400;5.16316200;2023-02-28T14:52:32;6.40;95.90
19363;DHT22;9817;50.80926400;5.16316200;2023-02-28T14:55:01;6.60;96.20
19363;DHT22;9817;50.80926400;5.16316200;2023-02-28T14:57:33;6.60;96.50
19363;DHT22;9817;50.80926400;5.16316200;2023-02-28T15:00:22;6.80;96.30
19363;DHT22;9817;50.80926400;5.16316200;2023-02-28T15:02:47;6.70;95.40
19363;DHT22;9817;50.80926400;5.16316200;2023-02-28T15:07:42;6.40;95.90
19363;DHT22;9817;50.80926400;5.16316200;2023-02-28T15:12:49;6.40;97.00
19363;DHT22;9817;50.80926400;5.16316200;2023-02-28T15:15:16;6.20;96.50
19363;DHT22;9817;50.80926400;5.16316200;2023-02-28T15:17:46;6.20;96.30
19363;DHT22;9817;50.80926400;5.16316200;2023-02-28T15:20:14;6.20;96.30
19363;DHT22;9817;50.80926400;5.16316200;2023-02-28T15:22:41;6.00;96.40
19363;DHT22;9817;50.80926400;5.16316200;2023-02-28T15:25:09;6.10;96.80
19363;DHT22;9817;50.80926400;5.16316200;2023-02-28T15:27:44;6.10;96.70
19363;DHT22;9817;50.80926400;5.16316200;2023-02-28T15:30:20;6.10;96.60
19363;DHT22;9817;50.80926400;5.16316200;2023-02-28T15:35:37;6.30;96.60
19363;DHT22;9817;50.80926400;5.16316200;2023-02-28T15:38:25;6.30;97.30
19363;DHT22;9817;50.80926400;5.16316200;2023-02-28T15:40:59;6.40;96.50
19363;DHT22;9817;50.80926400;5.16316200;2023-02-28T15:43:27;6.30;96.70
19363;DHT22;9817;50.80926400;5.16316200;2023-02-28T15:45:57;6.40;96.90
19363;DHT22;9817;50.80926400;5.16316200;2023-02-28T15:48:45;6.10;96.30
19363;DHT22;9817;50.80926400;5.16316200;2023-02-28T15:51:39;6.00;97.40
19363;DHT22;9817;50.80926400;5.16316200;2023-02-28T15:54:07;6.10;97.20
19363;DHT22;9817;50.80926400;5.16316200;2023-02-28T15:56:38;6.00;96.90
19363;DHT22;9817;50.80926400;5.16316200;2023-02-28T15:59:06;5.80;98.00
19363;DHT22;9817;50.80926400;5.16316200;2023-02-28T16:01:36;5.80;98.10
19363;DHT22;9817;50.80926400;5.16316200;2023-02-28T16:04:04;5.90;98.00
19363;DHT22;9817;50.80926400;5.16316200;2023-02-28T16:06:40;6.00;98.10
19363;DHT22;9817;50.80926400;5.16316200;2023-02-28T16:09:12;6.20;97.90
19363;DHT22;9817;50.80926400;5.16316200;2023-02-28T16:11:42;6.30;98.70
19363;DHT22;9817;50.80926400;5.16316200;2023-02-28T16:14:15;6.20;97.90
19363;DHT22;9817;50.80926400;5.16316200;2023-02-28T16:16:50;6.30;97.90
19363;DHT22;9817;50.80926400;5.16316200;2023-02-28T16:19:17;6.20;97.90
19363;DHT22;9817;50.80926400;5.16316200;2023-02-28T16:21:43;6.20;97.80
19363;DHT22;9817;50.80926400;5.16316200;2023-02-28T16:24:09;6.10;97.80
19363;DHT22;9817;50.80926400;5.16316200;2023-02-28T16:26:35;6.10;98.20
19363;DHT22;9817;50.80926400;5.16316200;2023-02-28T16:29:03;6.10;98.10
19363;DHT22;9817;50.80926400;5.16316200;2023-02-28T16:31:29;6.10;98.10